createdAt,value
2022-12-14T00:00:13.166Z,100630.84
2022-12-14T00:02:41.549Z,100624.91
2022-12-14T00:05:10.793Z,100628.19
2022-12-14T00:07:39.061Z,100638.00
2022-12-14T00:10:08.488Z,100627.72
2022-12-14T00:12:36.743Z,100630.84
2022-12-14T00:15:08.837Z,100615.34
2022-12-14T00:17:37.195Z,100624.09
2022-12-14T00:20:07.239Z,100562.09
2022-12-14T00:22:35.636Z,100618.38
2022-12-14T00:25:04.669Z,100604.94
2022-12-14T00:27:33.095Z,100608.91
2022-12-14T00:30:01.451Z,100585.63
2022-12-14T00:32:31.064Z,100591.31
2022-12-14T00:35:01.418Z,100587.13
2022-12-14T00:37:29.712Z,100578.94
2022-12-14T00:39:58.003Z,100575.75
2022-12-14T00:42:26.450Z,100539.94
2022-12-14T00:44:54.824Z,100567.69
2022-12-14T00:47:23.285Z,100561.06
2022-12-14T00:49:53.462Z,100543.81
2022-12-14T00:52:21.975Z,100560.59
2022-12-14T00:54:50.330Z,100566.34
2022-12-14T00:57:18.617Z,100567.88
2022-12-14T00:59:46.874Z,100559.63
2022-12-14T01:02:15.263Z,100511.00
2022-12-14T01:04:43.664Z,100549.19
2022-12-14T01:07:13.811Z,100547.25
2022-12-14T01:09:42.211Z,100544.84
2022-12-14T01:12:10.536Z,100547.66
2022-12-14T01:14:38.832Z,100546.78
2022-12-14T01:17:08.029Z,100545.25
2022-12-14T01:19:36.324Z,100519.75
2022-12-14T01:22:05.312Z,100550.66
2022-12-14T01:24:34.959Z,100502.28
2022-12-14T01:27:03.933Z,100540.75
2022-12-14T01:29:32.342Z,100527.34
2022-12-14T01:32:00.783Z,100545.81
2022-12-14T01:34:29.075Z,100533.69
2022-12-14T01:36:57.480Z,100548.03
2022-12-14T01:39:25.878Z,100556.84
2022-12-14T01:41:55.985Z,100548.22
2022-12-14T01:45:04.409Z,100543.66
2022-12-14T01:47:42.151Z,100520.50
2022-12-14T01:50:19.952Z,100521.47
2022-12-14T01:52:52.936Z,100550.56
2022-12-14T01:55:26.000Z,100522.34
2022-12-14T01:58:01.182Z,100524.81
2022-12-14T02:00:29.609Z,100527.22
2022-12-14T02:03:03.572Z,100528.72
2022-12-14T02:05:34.570Z,100543.66
2022-12-14T02:08:04.010Z,100534.50
2022-12-14T02:10:34.664Z,100530.75
2022-12-14T02:13:14.653Z,100532.91
2022-12-14T02:15:44.464Z,100516.25
2022-12-14T02:18:19.023Z,100536.84
2022-12-14T02:21:06.951Z,100525.69
2022-12-14T02:24:18.781Z,100528.97
2022-12-14T02:27:11.164Z,100533.88
2022-12-14T02:30:00.796Z,100526.28
2022-12-14T02:32:50.575Z,100532.00
2022-12-14T02:35:28.032Z,100526.53
2022-12-14T02:38:08.892Z,100515.28
2022-12-14T02:40:46.298Z,100525.19
2022-12-14T02:43:24.067Z,100486.47
2022-12-14T02:46:04.498Z,100506.25
2022-12-14T02:48:40.684Z,100508.28
2022-12-14T02:51:19.793Z,100505.69
2022-12-14T02:53:54.963Z,100515.78
2022-12-14T02:56:32.764Z,100504.22
2022-12-14T02:59:02.839Z,100507.16
2022-12-14T03:01:33.817Z,100518.06
2022-12-14T03:04:03.491Z,100517.59
2022-12-14T03:06:32.186Z,100510.72
2022-12-14T03:09:05.930Z,100516.63
2022-12-14T03:11:42.433Z,100518.75
2022-12-14T03:14:17.901Z,100488.78
2022-12-14T03:16:52.056Z,100508.41
2022-12-14T03:19:25.986Z,100508.56
2022-12-14T03:22:00.807Z,100502.03
2022-12-14T03:24:35.908Z,100499.88
2022-12-14T03:27:13.926Z,100506.47
2022-12-14T03:29:46.986Z,100483.72
2022-12-14T03:32:24.309Z,100490.03
2022-12-14T03:35:01.361Z,100467.75
2022-12-14T03:37:39.070Z,100483.72
2022-12-14T03:40:11.733Z,100478.44
2022-12-14T03:42:49.457Z,100469.28
2022-12-14T03:45:24.236Z,100447.84
2022-12-14T03:48:11.694Z,100470.47
2022-12-14T03:50:46.200Z,100463.25
2022-12-14T03:53:22.693Z,100453.66
2022-12-14T03:56:02.104Z,100456.47
2022-12-14T03:58:41.343Z,100421.38
2022-12-14T04:01:18.779Z,100453.97
2022-12-14T04:03:59.003Z,100460.88
2022-12-14T04:06:35.596Z,100447.84
2022-12-14T04:09:16.372Z,100435.84
2022-12-14T04:12:09.533Z,100433.13
2022-12-14T04:15:08.972Z,100437.78
2022-12-14T04:17:57.959Z,100433.59
2022-12-14T04:20:32.621Z,100428.47
2022-12-14T04:23:08.579Z,100425.56
2022-12-14T04:25:59.474Z,100423.97
2022-12-14T04:28:50.114Z,100420.78
2022-12-14T04:31:24.586Z,100421.19
2022-12-14T04:33:58.580Z,100405.38
2022-12-14T04:36:35.185Z,100397.91
2022-12-14T04:39:10.411Z,100390.81
2022-12-14T04:41:46.005Z,100399.59
2022-12-14T04:44:22.566Z,100393.56
2022-12-14T04:46:54.141Z,100411.25
2022-12-14T04:49:30.500Z,100409.31
2022-12-14T04:52:06.069Z,100385.69
2022-12-14T04:54:43.590Z,100410.34
2022-12-14T04:57:19.430Z,100406.41
2022-12-14T04:59:49.153Z,100376.41
2022-12-14T05:02:28.930Z,100402.88
2022-12-14T05:05:04.191Z,100404.63
2022-12-14T05:07:48.812Z,100370.22
2022-12-14T05:10:21.695Z,100400.94
2022-12-14T05:12:58.680Z,100373.13
2022-12-14T05:15:33.811Z,100348.94
2022-12-14T05:18:04.659Z,100402.31
2022-12-14T05:20:33.759Z,100392.03
2022-12-14T05:23:03.591Z,100380.81
2022-12-14T05:25:31.990Z,100386.25
2022-12-14T05:28:00.439Z,100392.75
2022-12-14T05:30:29.080Z,100376.09
2022-12-14T05:32:57.906Z,100359.69
2022-12-14T05:35:26.499Z,100387.97
2022-12-14T05:37:55.128Z,100393.94
2022-12-14T05:40:24.787Z,100364.28
2022-12-14T05:42:55.853Z,100297.53
2022-12-14T05:45:24.332Z,100383.84
2022-12-14T05:47:52.835Z,100375.66
2022-12-14T05:50:24.079Z,100382.22
2022-12-14T05:52:52.815Z,100397.00
2022-12-14T05:55:21.236Z,100395.97
2022-12-14T05:57:51.070Z,100356.66
2022-12-14T06:00:20.085Z,100385.78
2022-12-14T06:02:48.416Z,100361.38
2022-12-14T06:05:16.966Z,100369.97
2022-12-14T06:07:45.374Z,100387.56
2022-12-14T06:10:13.982Z,100388.13
2022-12-14T06:12:43.623Z,100386.72
2022-12-14T06:15:14.070Z,100359.78
2022-12-14T06:17:44.663Z,100384.25
2022-12-14T06:20:14.580Z,100366.22
2022-12-14T06:22:47.540Z,100376.06
2022-12-14T06:25:16.872Z,100382.88
2022-12-14T06:27:45.218Z,100385.28
2022-12-14T06:30:16.943Z,100378.56
2022-12-14T06:32:45.545Z,100382.75
2022-12-14T06:35:14.098Z,100356.81
2022-12-14T06:37:42.367Z,100378.00
2022-12-14T06:40:17.456Z,100360.53
2022-12-14T06:42:47.885Z,100388.34
2022-12-14T06:45:17.824Z,100384.81
2022-12-14T06:47:46.189Z,100342.97
2022-12-14T06:50:15.020Z,100382.22
2022-12-14T06:52:43.512Z,100374.25
2022-12-14T06:55:11.915Z,100359.19
2022-12-14T06:57:40.195Z,100389.19
2022-12-14T07:00:12.308Z,100386.84
2022-12-14T07:02:42.164Z,100385.00
2022-12-14T07:05:10.851Z,100393.66
2022-12-14T07:07:39.168Z,100389.25
2022-12-14T07:10:10.177Z,100381.97
2022-12-14T07:12:38.706Z,100395.53
2022-12-14T07:15:08.619Z,100374.22
2022-12-14T07:17:38.351Z,100378.38
2022-12-14T07:20:10.791Z,100389.69
2022-12-14T07:22:40.766Z,100384.03
2022-12-14T07:25:09.854Z,100377.84
2022-12-14T07:27:38.179Z,100358.66
2022-12-14T07:30:09.234Z,100385.53
2022-12-14T07:32:37.486Z,100390.97
2022-12-14T07:35:13.087Z,100388.25
2022-12-14T07:37:49.309Z,100385.91
2022-12-14T07:40:18.602Z,100394.28
2022-12-14T07:42:50.348Z,100391.16
2022-12-14T07:45:19.018Z,100402.94
2022-12-14T07:47:47.482Z,100408.31
2022-12-14T07:50:18.110Z,100389.22
2022-12-14T07:52:46.974Z,100410.72
2022-12-14T07:55:16.537Z,100416.06
2022-12-14T07:57:44.899Z,100414.78
2022-12-14T08:00:14.929Z,100406.84
2022-12-14T08:02:43.372Z,100433.00
2022-12-14T08:05:12.971Z,100436.41
2022-12-14T08:07:42.900Z,100441.69
2022-12-14T08:10:11.490Z,100442.13
2022-12-14T08:12:40.100Z,100426.59
2022-12-14T08:15:10.425Z,100439.94
2022-12-14T08:17:38.781Z,100432.69
2022-12-14T08:20:08.665Z,100437.38
2022-12-14T08:22:37.016Z,100427.50
2022-12-14T08:25:08.610Z,100433.84
2022-12-14T08:27:37.105Z,100419.78
2022-12-14T08:30:06.731Z,100429.84
2022-12-14T08:32:35.085Z,100432.91
2022-12-14T08:35:03.568Z,100431.50
2022-12-14T08:37:31.888Z,100436.53
2022-12-14T08:40:00.557Z,100438.28
2022-12-14T08:42:30.438Z,100426.47
2022-12-14T08:44:58.945Z,100438.78
2022-12-14T08:47:27.361Z,100431.22
2022-12-14T08:49:55.756Z,100442.31
2022-12-14T08:52:24.053Z,100442.84
2022-12-14T08:54:52.344Z,100459.13
2022-12-14T08:57:21.024Z,100461.69
2022-12-14T09:00:06.265Z,100463.09
2022-12-14T09:02:35.009Z,100460.72
2022-12-14T09:05:03.876Z,100449.53
2022-12-14T09:07:33.427Z,100427.00
2022-12-14T09:10:01.755Z,100454.31
2022-12-14T09:12:30.152Z,100448.31
2022-12-14T09:15:01.094Z,100434.41
2022-12-14T09:17:29.496Z,100452.78
2022-12-14T09:19:58.368Z,100455.91
2022-12-14T09:22:26.942Z,100454.84
2022-12-14T09:24:55.306Z,100445.25
2022-12-14T09:27:23.644Z,100447.38
2022-12-14T09:29:52.225Z,100447.28
2022-12-14T09:32:22.106Z,100450.38
2022-12-14T09:34:50.421Z,100455.50
2022-12-14T09:37:18.712Z,100430.34
2022-12-14T09:39:47.067Z,100438.47
2022-12-14T09:42:40.005Z,100450.31
2022-12-14T09:45:17.796Z,100461.06
2022-12-14T09:47:58.553Z,100460.22
2022-12-14T09:50:27.774Z,100465.00
2022-12-14T09:53:00.549Z,100468.84
2022-12-14T09:55:33.751Z,100448.34
2022-12-14T09:58:08.661Z,100465.16
2022-12-14T10:00:49.617Z,100458.75
2022-12-14T10:03:42.865Z,100470.09
2022-12-14T10:06:37.370Z,100468.41
2022-12-14T10:09:19.688Z,100479.19
2022-12-14T10:12:02.673Z,100462.13
2022-12-14T10:14:56.242Z,100469.38
2022-12-14T10:17:34.614Z,100453.38
2022-12-14T10:20:15.879Z,100431.91
2022-12-14T10:22:52.452Z,100436.59
2022-12-14T10:25:24.856Z,100470.59
2022-12-14T10:28:10.999Z,100468.03
2022-12-14T10:30:41.918Z,100457.44
2022-12-14T10:33:18.124Z,100467.22
2022-12-14T10:35:53.203Z,100453.94
2022-12-14T10:38:29.693Z,100423.19
2022-12-14T10:41:15.425Z,100463.38
2022-12-14T10:43:56.336Z,100443.75
2022-12-14T10:46:38.850Z,100431.16
2022-12-14T10:49:16.689Z,100459.69
2022-12-14T10:51:52.888Z,100469.16
2022-12-14T10:54:33.802Z,100454.66
2022-12-14T10:57:03.004Z,100465.31
2022-12-14T10:59:44.766Z,100435.69
2022-12-14T11:02:28.769Z,100457.38
2022-12-14T11:05:00.216Z,100421.19
2022-12-14T11:07:43.015Z,100431.13
2022-12-14T11:10:18.906Z,100445.47
2022-12-14T11:13:03.423Z,100436.25
2022-12-14T11:15:36.306Z,100446.25
2022-12-14T11:18:09.207Z,100434.06
2022-12-14T11:20:37.692Z,100446.91
2022-12-14T11:23:20.803Z,100417.00
2022-12-14T11:25:51.520Z,100453.81
2022-12-14T11:28:36.408Z,100453.03
2022-12-14T11:31:08.477Z,100440.13
2022-12-14T11:33:40.589Z,100423.72
2022-12-14T11:36:10.089Z,100438.47
2022-12-14T11:38:39.753Z,100440.53
2022-12-14T11:41:11.932Z,100447.59
2022-12-14T11:43:41.643Z,100435.09
2022-12-14T11:46:09.973Z,100412.41
2022-12-14T11:48:47.367Z,100442.91
2022-12-14T11:51:15.650Z,100443.06
2022-12-14T11:53:47.357Z,100444.00
2022-12-14T11:56:19.050Z,100411.13
2022-12-14T11:58:54.810Z,100441.28
2022-12-14T12:01:27.533Z,100436.81
2022-12-14T12:03:59.377Z,100437.69
2022-12-14T12:06:30.934Z,100434.94
2022-12-14T12:09:05.367Z,100433.28
2022-12-14T12:11:36.288Z,100427.28
2022-12-14T12:14:08.428Z,100439.06
2022-12-14T12:16:37.552Z,100432.63
2022-12-14T12:19:12.397Z,100410.72
2022-12-14T12:21:44.711Z,100399.63
2022-12-14T12:24:21.928Z,100430.81
2022-12-14T12:26:53.911Z,100430.66
2022-12-14T12:29:30.958Z,100399.84
2022-12-14T12:33:53.535Z,100419.13
2022-12-14T12:36:24.520Z,100434.09
2022-12-14T12:39:06.798Z,100423.94
2022-12-14T12:41:47.532Z,100432.63
2022-12-14T12:44:39.425Z,100441.41
2022-12-14T12:47:34.437Z,100436.94
2022-12-14T12:50:16.885Z,100439.47
2022-12-14T12:53:02.637Z,100441.84
2022-12-14T12:55:36.613Z,100442.97
2022-12-14T12:58:09.846Z,100440.38
2022-12-14T13:00:41.231Z,100418.53
2022-12-14T13:03:23.360Z,100438.31
2022-12-14T13:05:57.496Z,100452.22
2022-12-14T13:08:33.277Z,100428.78
2022-12-14T13:14:01.750Z,100446.28
2022-12-14T13:16:36.008Z,100453.72
2022-12-14T13:19:48.892Z,100443.47
2022-12-14T13:22:08.803Z,100448.69
2022-12-14T13:24:39.201Z,100453.50
2022-12-14T13:27:54.682Z,100449.03
2022-12-14T13:30:35.872Z,100425.19
2022-12-14T13:33:42.558Z,100448.50
2022-12-14T13:37:05.176Z,100442.88
2022-12-14T13:40:26.001Z,100437.91
2022-12-14T13:43:06.953Z,100404.34
2022-12-14T13:45:41.248Z,100413.00
2022-12-14T13:48:21.588Z,100433.84
2022-12-14T13:51:01.794Z,100425.91
2022-12-14T13:53:36.375Z,100412.97
2022-12-14T13:56:07.349Z,100442.22
2022-12-14T13:58:41.095Z,100370.63
2022-12-14T14:01:14.889Z,100415.75
2022-12-14T14:03:55.361Z,100420.22
2022-12-14T14:06:41.202Z,100456.72
2022-12-14T14:10:02.702Z,100455.19
2022-12-14T14:12:40.325Z,100414.59
2022-12-14T14:16:28.426Z,100426.44
2022-12-14T14:18:53.272Z,100469.00
2022-12-14T14:21:58.819Z,100460.91
2022-12-14T14:24:29.464Z,100459.13
2022-12-14T14:27:12.457Z,100467.38
2022-12-14T14:29:49.401Z,100462.31
2022-12-14T14:32:39.527Z,100455.69
2022-12-14T14:35:23.356Z,100471.34
2022-12-14T14:38:01.764Z,100459.91
2022-12-14T14:43:31.258Z,100438.94
2022-12-14T14:46:05.752Z,100474.75
2022-12-14T14:48:39.785Z,100468.13
2022-12-14T14:51:21.347Z,100449.59
2022-12-14T14:53:50.174Z,100474.56
2022-12-14T14:56:38.207Z,100448.56
2022-12-14T14:59:51.083Z,100464.88
2022-12-14T15:02:42.158Z,100512.75
2022-12-14T15:08:19.698Z,100497.78
2022-12-14T15:10:49.679Z,100505.56
2022-12-14T15:13:24.040Z,100507.06
2022-12-14T15:15:54.920Z,100512.78
2022-12-14T15:18:27.781Z,100484.97
2022-12-14T15:21:01.905Z,100496.75
2022-12-14T15:23:37.466Z,100514.59
2022-12-14T15:26:17.098Z,100523.59
2022-12-14T15:28:53.797Z,100523.25
2022-12-14T15:31:32.134Z,100510.44
2022-12-14T15:34:04.106Z,100532.97
2022-12-14T15:36:37.845Z,100519.22
2022-12-14T15:45:15.598Z,100516.59
2022-12-14T15:47:44.098Z,100501.09
2022-12-14T15:50:32.806Z,100530.41
2022-12-14T15:53:14.262Z,100538.94
2022-12-14T15:55:44.366Z,100515.03
2022-12-14T15:58:24.601Z,100533.81
2022-12-14T16:00:53.836Z,100554.03
2022-12-14T16:03:31.455Z,100559.78
2022-12-14T16:06:02.868Z,100539.97
2022-12-14T16:08:35.184Z,100558.47
2022-12-14T16:11:23.245Z,100568.28
2022-12-14T16:14:22.118Z,100530.97
2022-12-14T16:16:51.066Z,100557.84
2022-12-14T16:19:27.760Z,100564.78
2022-12-14T16:22:23.082Z,100563.28
2022-12-14T16:25:19.322Z,100537.88
2022-12-14T16:27:50.738Z,100576.91
2022-12-14T16:30:25.206Z,100570.38
2022-12-14T16:33:07.546Z,100561.78
2022-12-14T16:54:32.774Z,100558.69
2022-12-14T16:57:07.051Z,100589.63
2022-12-14T16:59:41.963Z,100565.25
2022-12-14T17:02:32.005Z,100592.72
2022-12-14T17:05:04.325Z,100574.81
2022-12-14T17:07:36.376Z,100570.91
2022-12-14T17:10:05.971Z,100548.19
2022-12-14T17:12:34.498Z,100568.16
2022-12-14T17:15:03.124Z,100608.41
2022-12-14T17:17:37.031Z,100607.34
2022-12-14T17:20:13.433Z,100615.53
2022-12-14T17:22:44.247Z,100597.22
2022-12-14T17:25:19.162Z,100612.00
2022-12-14T17:27:49.496Z,100603.91
2022-12-14T17:30:21.913Z,100580.72
2022-12-14T17:33:01.918Z,100616.16
2022-12-14T17:35:32.929Z,100587.22
2022-12-14T17:38:01.730Z,100592.22
2022-12-14T17:40:30.246Z,100619.22
2022-12-14T17:42:59.875Z,100597.66
2022-12-14T17:45:30.230Z,100593.31
2022-12-14T17:48:01.282Z,100566.97
2022-12-14T17:50:31.003Z,100602.38
2022-12-14T17:53:00.582Z,100613.91
2022-12-14T17:55:30.468Z,100603.97
2022-12-14T17:57:59.121Z,100574.34
2022-12-14T18:00:48.477Z,100610.66
2022-12-14T18:03:20.174Z,100583.69
2022-12-14T18:05:50.791Z,100585.06
2022-12-14T18:08:19.947Z,100609.88
2022-12-14T18:10:51.998Z,100618.91
2022-12-14T18:13:21.357Z,100619.63
2022-12-14T18:15:52.244Z,100631.72
2022-12-14T18:18:25.650Z,100587.81
2022-12-14T18:20:56.783Z,100598.44
2022-12-14T18:23:25.651Z,100628.66
2022-12-14T18:25:56.512Z,100615.28
2022-12-14T18:28:26.417Z,100599.94
2022-12-14T18:31:00.006Z,100609.38
2022-12-14T18:33:32.022Z,100599.75
2022-12-14T18:36:00.812Z,100586.47
2022-12-14T18:38:31.443Z,100610.47
2022-12-14T18:41:01.707Z,100629.25
2022-12-14T18:43:30.947Z,100591.34
2022-12-14T18:46:02.167Z,100622.47
2022-12-14T18:48:32.009Z,100633.91
2022-12-14T18:51:00.917Z,100632.09
2022-12-14T18:53:30.320Z,100590.34
2022-12-14T18:55:59.875Z,100602.16
2022-12-14T18:58:30.467Z,100619.13
2022-12-14T19:01:00.894Z,100635.56
2022-12-14T19:03:34.101Z,100635.75
2022-12-14T19:06:42.337Z,100638.41
2022-12-14T19:08:58.106Z,100629.22
2022-12-14T19:11:34.067Z,100640.28
2022-12-14T19:14:05.042Z,100619.22
2022-12-14T19:16:33.593Z,100614.09
2022-12-14T19:19:05.325Z,100639.59
2022-12-14T19:21:33.825Z,100645.31
2022-12-14T19:24:02.249Z,100633.75
2022-12-14T19:26:31.865Z,100637.53
2022-12-14T19:29:00.362Z,100593.81
2022-12-14T19:31:29.139Z,100639.69
2022-12-14T19:33:57.761Z,100614.50
2022-12-14T19:36:27.797Z,100641.66
2022-12-14T19:38:56.311Z,100629.72
2022-12-14T19:41:24.671Z,100641.16
2022-12-14T19:43:53.343Z,100644.41
2022-12-14T19:46:23.939Z,100640.06
2022-12-14T19:48:52.690Z,100630.22
2022-12-14T19:51:23.845Z,100631.59
2022-12-14T19:53:55.547Z,100654.72
2022-12-14T19:56:24.094Z,100657.84
2022-12-14T19:58:52.524Z,100661.63
2022-12-14T20:01:21.149Z,100664.94
2022-12-14T20:03:50.300Z,100663.69
2022-12-14T20:06:18.988Z,100663.69
2022-12-14T20:08:49.519Z,100637.94
2022-12-14T20:11:20.512Z,100662.88
2022-12-14T20:13:53.286Z,100639.31
2022-12-14T20:16:26.537Z,100669.88
2022-12-14T20:18:55.625Z,100680.19
2022-12-14T20:21:24.253Z,100677.84
2022-12-14T20:23:52.616Z,100673.91
2022-12-14T20:26:24.076Z,100601.09
2022-12-14T20:28:54.253Z,100627.31
2022-12-14T20:31:23.460Z,100654.91
2022-12-14T20:33:51.971Z,100688.25
2022-12-14T20:36:25.789Z,100638.53
2022-12-14T20:39:01.579Z,100701.72
2022-12-14T20:41:32.731Z,100703.50
2022-12-14T20:44:02.928Z,100670.16
2022-12-14T20:46:33.835Z,100700.22
2022-12-14T20:49:06.805Z,100701.78
2022-12-14T20:51:38.276Z,100699.53
2022-12-14T20:54:09.496Z,100692.44
2022-12-14T20:56:40.080Z,100702.69
2022-12-14T20:59:10.069Z,100695.47
2022-12-14T21:01:40.613Z,100743.97
2022-12-14T21:04:10.261Z,100733.06
2022-12-14T21:06:40.505Z,100701.25
2022-12-14T21:09:13.391Z,100719.19
2022-12-14T21:12:03.373Z,100740.78
2022-12-14T21:14:35.134Z,100744.94
2022-12-14T21:17:05.746Z,100722.59
2022-12-14T21:19:35.998Z,100699.75
2022-12-14T21:22:04.646Z,100745.97
2022-12-14T21:27:26.072Z,100744.19
2022-12-14T21:29:55.291Z,100745.97
2022-12-14T21:32:24.367Z,100747.34
2022-12-14T21:34:52.934Z,100729.41
2022-12-14T21:37:24.594Z,100750.50
2022-12-14T21:39:54.154Z,100740.00
2022-12-14T21:42:24.996Z,100739.66
2022-12-14T21:44:55.222Z,100754.75
2022-12-14T21:47:26.676Z,100768.94
2022-12-14T21:49:55.545Z,100739.75
2022-12-14T21:52:27.072Z,100733.69
2022-12-14T21:54:55.919Z,100750.50
2022-12-14T21:57:49.946Z,100762.63
2022-12-14T22:00:20.838Z,100702.03
2022-12-14T22:02:49.598Z,100769.13
2022-12-14T22:05:18.555Z,100764.00
2022-12-14T22:07:47.017Z,100766.66
2022-12-14T22:10:18.806Z,100766.78
2022-12-14T22:12:52.730Z,100765.63
2022-12-14T22:15:21.398Z,100783.56
2022-12-14T22:17:51.852Z,100771.84
2022-12-14T22:20:23.404Z,100787.03
2022-12-14T22:22:51.746Z,100775.09
2022-12-14T22:25:20.146Z,100770.16
2022-12-14T22:27:49.750Z,100772.06
2022-12-14T22:30:21.187Z,100745.53
2022-12-14T22:32:49.513Z,100732.34
2022-12-14T22:35:18.160Z,100770.16
2022-12-14T22:37:46.734Z,100777.84
2022-12-14T22:40:18.631Z,100772.91
2022-12-14T22:42:46.980Z,100749.28
2022-12-14T22:45:15.620Z,100773.81
2022-12-14T22:47:45.508Z,100742.19
2022-12-14T22:50:13.871Z,100774.28
2022-12-14T22:52:42.372Z,100761.88
2022-12-14T22:55:12.474Z,100743.75
2022-12-14T22:57:46.251Z,100784.84
2022-12-14T23:00:16.968Z,100749.69
2022-12-14T23:02:48.913Z,100775.88
2022-12-14T23:05:18.468Z,100762.66
2022-12-14T23:07:47.515Z,100776.97
2022-12-14T23:10:33.530Z,100805.34
2022-12-14T23:13:20.504Z,100804.63
2022-12-14T23:16:06.573Z,100776.38
2022-12-14T23:18:53.835Z,100771.16
2022-12-14T23:21:39.476Z,100717.47
2022-12-14T23:24:26.665Z,100791.06
2022-12-14T23:27:12.621Z,100757.56
2022-12-14T23:29:58.876Z,100784.38
2022-12-14T23:32:45.497Z,100778.53
2022-12-14T23:35:33.186Z,100799.84
2022-12-14T23:38:23.628Z,100787.50
2022-12-14T23:41:09.531Z,100801.41
2022-12-14T23:43:55.312Z,100794.78
2022-12-14T23:46:41.243Z,100785.72
2022-12-14T23:49:27.460Z,100805.03
2022-12-14T23:52:17.452Z,100778.44
2022-12-14T23:55:03.340Z,100807.50
2022-12-14T23:57:48.980Z,100798.44
